createdAt,value
2019-04-01T00:02:23.988Z,95725.09
2019-04-01T00:05:12.631Z,95725.55
2019-04-01T00:08:03.133Z,95719.80
2019-04-01T00:10:51.942Z,95715.60
2019-04-01T00:13:40.817Z,95714.78
2019-04-01T00:16:29.809Z,95714.22
2019-04-01T00:19:18.849Z,95712.68
2019-04-01T00:22:07.941Z,95716.30
2019-04-01T00:24:56.874Z,95704.23
2019-04-01T00:27:45.337Z,95706.44
2019-04-01T00:30:34.078Z,95709.20
2019-04-01T00:33:23.005Z,95704.45
2019-04-01T00:36:11.978Z,95702.77
2019-04-01T00:39:01.236Z,95703.73
2019-04-01T00:42:05.684Z,95696.38
2019-04-01T00:44:53.849Z,95692.96
2019-04-01T00:47:41.977Z,95689.32
2019-04-01T00:50:30.810Z,95696.88
2019-04-01T00:53:19.653Z,95697.02
2019-04-01T00:56:07.810Z,95701.63
2019-04-01T00:58:56.513Z,95698.20
2019-04-01T01:01:44.757Z,95694.75
2019-04-01T01:04:34.041Z,95699.96
2019-04-01T01:07:22.488Z,95702.11
2019-04-01T01:10:11.383Z,95698.25
2019-04-01T01:12:59.741Z,95695.66
2019-04-01T01:15:48.823Z,95690.78
2019-04-01T01:18:37.971Z,95694.30
2019-04-01T01:21:26.531Z,95690.45
2019-04-01T01:24:15.231Z,95689.98
2019-04-01T01:27:04.114Z,95680.45
2019-04-01T01:29:52.831Z,95685.57
2019-04-01T01:32:41.957Z,95680.91
2019-04-01T01:35:30.449Z,95679.69
2019-04-01T01:38:18.559Z,95685.25
2019-04-01T01:41:07.436Z,95682.00
2019-04-01T01:43:56.327Z,95683.07
2019-04-01T01:46:45.189Z,95686.20
2019-04-01T01:49:33.601Z,95688.52
2019-04-01T01:52:21.769Z,95686.86
2019-04-01T01:55:10.731Z,95684.07
2019-04-01T01:57:58.865Z,95681.89
2019-04-01T02:00:47.818Z,95681.00
2019-04-01T02:03:36.049Z,95686.81
2019-04-01T02:06:24.738Z,95688.24
2019-04-01T02:09:13.000Z,95692.68
2019-04-01T02:12:02.332Z,95682.88
2019-04-01T02:14:50.660Z,95680.25
2019-04-01T02:17:39.439Z,95688.53
2019-04-01T02:20:28.035Z,95683.33
2019-04-01T02:23:17.106Z,95689.02
2019-04-01T02:26:05.803Z,95690.32
2019-04-01T02:28:54.716Z,95688.14
2019-04-01T02:31:43.407Z,95691.14
2019-04-01T02:34:32.336Z,95682.05
2019-04-01T02:37:20.691Z,95682.99
2019-04-01T02:40:10.013Z,95681.69
2019-04-01T02:42:58.839Z,95685.16
2019-04-01T02:45:47.447Z,95678.33
2019-04-01T02:48:36.375Z,95678.37
2019-04-01T02:51:25.265Z,95676.83
2019-04-01T02:54:14.344Z,95676.83
2019-04-01T02:57:03.324Z,95674.17
2019-04-01T02:59:51.576Z,95687.48
2019-04-01T03:02:39.879Z,95683.23
2019-04-01T03:05:28.202Z,95683.59
2019-04-01T03:08:16.559Z,95680.63
2019-04-01T03:11:09.912Z,95684.59
2019-04-01T03:13:55.688Z,95687.65
2019-04-01T03:16:44.307Z,95688.84
2019-04-01T03:19:33.520Z,95687.48
2019-04-01T03:22:22.498Z,95682.81
2019-04-01T03:25:10.958Z,95683.41
2019-04-01T03:27:59.406Z,95682.63
2019-04-01T03:30:47.885Z,95682.75
2019-04-01T03:33:36.482Z,95679.08
2019-04-01T03:36:26.627Z,95679.08
2019-04-01T03:39:15.377Z,95680.02
2019-04-01T03:42:04.286Z,95679.97
2019-04-01T03:44:55.256Z,95678.71
2019-04-01T03:47:43.151Z,95687.34
2019-04-01T03:50:31.668Z,95679.48
2019-04-01T03:53:20.193Z,95678.19
2019-04-01T03:56:08.514Z,95677.89
2019-04-01T03:58:56.672Z,95688.39
2019-04-01T04:01:45.652Z,95682.73
2019-04-01T04:04:34.198Z,95685.48
2019-04-01T04:07:23.248Z,95679.30
2019-04-01T04:10:12.079Z,95683.24
2019-04-01T04:13:01.040Z,95686.00
2019-04-01T04:15:49.613Z,95685.96
2019-04-01T04:18:38.364Z,95688.70
2019-04-01T04:21:26.585Z,95691.67
2019-04-01T04:24:15.434Z,95693.80
2019-04-01T04:27:03.978Z,95685.74
2019-04-01T04:29:52.786Z,95690.42
2019-04-01T04:32:41.333Z,95687.47
2019-04-01T04:35:30.457Z,95692.75
2019-04-01T04:38:19.365Z,95687.39
2019-04-01T04:41:07.908Z,95685.37
2019-04-01T04:43:56.686Z,95678.64
2019-04-01T04:46:44.875Z,95685.64
2019-04-01T04:49:33.686Z,95685.88
2019-04-01T04:52:22.321Z,95680.95
2019-04-01T04:55:11.152Z,95680.13
2019-04-01T04:58:00.032Z,95676.27
2019-04-01T05:00:48.964Z,95684.21
2019-04-01T05:03:37.982Z,95680.83
2019-04-01T05:06:26.421Z,95679.20
2019-04-01T05:09:15.301Z,95685.64
2019-04-01T05:12:03.940Z,95686.42
2019-04-01T05:14:52.656Z,95688.52
2019-04-01T05:17:41.612Z,95691.07
2019-04-01T05:20:31.638Z,95684.16
2019-04-01T05:23:19.882Z,95687.55
2019-04-01T05:26:09.596Z,95688.42
2019-04-01T05:29:00.428Z,95689.31
2019-04-01T05:31:50.179Z,95688.09
2019-04-01T05:34:41.863Z,95686.80
2019-04-01T05:37:30.056Z,95689.72
2019-04-01T05:40:19.303Z,95690.56
2019-04-01T05:43:07.384Z,95690.52
2019-04-01T05:45:55.432Z,95693.16
2019-04-01T05:48:44.387Z,95695.70
2019-04-01T05:51:33.625Z,95697.78
2019-04-01T05:54:22.476Z,95696.44
2019-04-01T05:57:11.664Z,95699.45
2019-04-01T06:00:01.352Z,95699.34
2019-04-01T06:02:49.903Z,95698.84
2019-04-01T06:05:38.784Z,95697.81
2019-04-01T06:08:27.620Z,95697.66
2019-04-01T06:11:17.638Z,95703.73
2019-04-01T06:14:06.674Z,95703.31
2019-04-01T06:16:55.734Z,95706.22
2019-04-01T06:19:44.987Z,95700.51
2019-04-01T06:22:33.545Z,95704.52
2019-04-01T06:25:22.689Z,95708.78
2019-04-01T06:28:11.264Z,95706.02
2019-04-01T06:31:00.006Z,95707.78
2019-04-01T06:33:49.096Z,95712.09
2019-04-01T06:36:38.944Z,95709.80
2019-04-01T06:39:27.667Z,95706.16
2019-04-01T06:42:15.964Z,95707.70
2019-04-01T06:45:05.152Z,95707.98
2019-04-01T06:47:53.661Z,95707.64
2019-04-01T06:50:41.993Z,95709.29
2019-04-01T06:53:31.411Z,95704.81
2019-04-01T06:56:20.321Z,95705.05
2019-04-01T06:59:08.462Z,95704.91
2019-04-01T07:01:56.900Z,95697.00
2019-04-01T07:04:45.805Z,95696.34
2019-04-01T07:07:35.001Z,95698.86
2019-04-01T07:10:25.029Z,95699.69
2019-04-01T07:13:14.241Z,95696.08
2019-04-01T07:16:14.624Z,95687.99
2019-04-01T07:18:53.495Z,95690.45
2019-04-01T07:21:43.329Z,95695.52
2019-04-01T07:24:32.566Z,95694.00
2019-04-01T07:27:21.614Z,95696.90
2019-04-01T07:30:12.121Z,95700.30
2019-04-01T07:33:00.847Z,95699.15
2019-04-01T07:35:49.753Z,95702.44
2019-04-01T07:38:38.851Z,95696.19
2019-04-01T07:41:27.603Z,95694.73
2019-04-01T07:44:16.849Z,95701.81
2019-04-01T07:47:05.402Z,95699.87
2019-04-01T07:49:53.999Z,95700.20
2019-04-01T07:52:42.752Z,95698.83
2019-04-01T07:55:31.906Z,95700.41
2019-04-01T07:58:20.330Z,95692.92
2019-04-01T08:01:09.386Z,95696.14
2019-04-01T08:03:57.720Z,95698.27
2019-04-01T08:06:46.182Z,95696.71
2019-04-01T08:09:35.180Z,95692.16
2019-04-01T08:12:27.676Z,95691.09
2019-04-01T08:15:13.921Z,95698.60
2019-04-01T08:18:02.756Z,95699.67
2019-04-01T08:20:50.916Z,95695.50
2019-04-01T08:23:39.927Z,95697.89
2019-04-01T08:26:29.409Z,95695.64
2019-04-01T08:29:29.368Z,95696.64
2019-04-01T08:32:08.716Z,95695.64
2019-04-01T08:34:57.669Z,95702.41
2019-04-01T08:37:46.988Z,95702.07
2019-04-01T08:40:35.774Z,95704.51
2019-04-01T08:43:24.705Z,95703.52
2019-04-01T08:46:13.593Z,95708.03
2019-04-01T08:49:02.050Z,95709.83
2019-04-01T08:51:51.528Z,95704.66
2019-04-01T08:54:40.676Z,95703.48
2019-04-01T08:57:29.763Z,95704.78
2019-04-01T09:00:18.971Z,95693.30
2019-04-01T09:03:07.439Z,95691.12
2019-04-01T09:05:56.504Z,95690.87
2019-04-01T09:08:46.705Z,95683.20
2019-04-01T09:11:38.234Z,95676.64
2019-04-01T09:14:24.893Z,95677.12
2019-04-01T09:17:13.048Z,95666.15
2019-04-01T09:20:02.953Z,95667.55
2019-04-01T09:22:51.584Z,95661.11
2019-04-01T09:25:40.331Z,95663.12
2019-04-01T09:28:29.062Z,95666.80
2019-04-01T09:31:17.446Z,95670.52
2019-04-01T09:34:06.176Z,95660.34
2019-04-01T09:36:55.322Z,95665.08
2019-04-01T09:39:43.586Z,95668.06
2019-04-01T09:42:32.312Z,95658.08
2019-04-01T09:45:20.682Z,95661.79
2019-04-01T09:48:08.966Z,95662.25
2019-04-01T09:50:57.591Z,95664.00
2019-04-01T09:53:46.333Z,95660.16
2019-04-01T09:56:35.498Z,95659.45
2019-04-01T09:59:24.049Z,95660.56
2019-04-01T10:02:13.390Z,95656.75
2019-04-01T10:05:01.782Z,95656.39
2019-04-01T10:07:50.667Z,95645.66
2019-04-01T10:10:40.541Z,95649.34
2019-04-01T10:13:29.684Z,95649.84
2019-04-01T10:16:17.990Z,95637.01
2019-04-01T10:19:06.727Z,95644.76
2019-04-01T10:21:54.995Z,95641.63
2019-04-01T10:24:43.684Z,95631.39
2019-04-01T10:27:32.325Z,95632.39
2019-04-01T10:30:21.608Z,95637.11
2019-04-01T10:33:09.911Z,95634.48
2019-04-01T10:35:58.808Z,95635.80
2019-04-01T10:38:47.846Z,95630.41
2019-04-01T10:41:36.809Z,95627.83
2019-04-01T10:44:25.587Z,95628.48
2019-04-01T10:47:14.300Z,95627.83
2019-04-01T10:50:02.992Z,95629.53
2019-04-01T10:52:51.822Z,95620.54
2019-04-01T10:55:40.442Z,95615.97
2019-04-01T10:58:29.199Z,95619.84
2019-04-01T11:01:18.278Z,95624.59
2019-04-01T11:04:06.754Z,95621.34
2019-04-01T11:06:55.315Z,95625.60
2019-04-01T11:09:44.397Z,95617.44
2019-04-01T11:12:33.107Z,95616.45
2019-04-01T11:15:22.186Z,95608.98
2019-04-01T11:18:12.018Z,95605.87
2019-04-01T11:21:01.391Z,95601.19
2019-04-01T11:23:50.653Z,95600.27
2019-04-01T11:26:39.942Z,95595.92
2019-04-01T11:29:28.646Z,95605.38
2019-04-01T11:32:17.825Z,95591.87
2019-04-01T11:35:07.227Z,95602.09
2019-04-01T11:37:55.690Z,95588.39
2019-04-01T11:40:44.382Z,95586.30
2019-04-01T11:43:35.459Z,95580.73
2019-04-01T11:46:23.231Z,95582.30
2019-04-01T11:49:12.623Z,95578.66
2019-04-01T11:52:01.447Z,95578.98
2019-04-01T11:54:50.150Z,95573.31
2019-04-01T11:57:38.687Z,95576.33
2019-04-01T12:00:27.823Z,95562.16
2019-04-01T12:03:16.807Z,95561.17
2019-04-01T12:06:05.629Z,95553.72
2019-04-01T12:08:54.123Z,95552.70
2019-04-01T12:11:42.831Z,95554.27
2019-04-01T12:14:32.293Z,95545.14
2019-04-01T12:17:21.165Z,95544.64
2019-04-01T12:20:09.905Z,95539.68
2019-04-01T12:22:59.150Z,95536.45
2019-04-01T12:25:48.526Z,95533.05
2019-04-01T12:28:36.885Z,95528.86
2019-04-01T12:31:25.979Z,95530.14
2019-04-01T12:34:14.484Z,95518.75
2019-04-01T12:37:04.726Z,95522.81
2019-04-01T12:39:53.391Z,95511.03
2019-04-01T12:42:42.357Z,95507.42
2019-04-01T12:45:30.848Z,95510.50
2019-04-01T12:48:18.926Z,95506.08
2019-04-01T12:51:07.386Z,95504.76
2019-04-01T12:53:56.449Z,95504.23
2019-04-01T12:56:45.448Z,95496.71
2019-04-01T12:59:34.289Z,95505.66
2019-04-01T13:02:23.508Z,95494.55
2019-04-01T13:05:12.075Z,95494.30
2019-04-01T13:08:01.555Z,95491.66
2019-04-01T13:10:50.827Z,95487.88
2019-04-01T13:13:39.135Z,95484.57
2019-04-01T13:16:28.094Z,95479.30
2019-04-01T13:19:17.176Z,95473.66
2019-04-01T13:22:05.984Z,95475.91
2019-04-01T13:24:56.667Z,95475.50
2019-04-01T13:27:45.557Z,95472.91
2019-04-01T13:30:34.320Z,95466.23
2019-04-01T13:33:23.278Z,95463.88
2019-04-01T13:36:12.454Z,95460.78
2019-04-01T13:39:04.086Z,95455.68
2019-04-01T13:41:51.766Z,95456.72
2019-04-01T13:44:40.600Z,95451.70
2019-04-01T13:47:29.997Z,95450.92
2019-04-01T13:50:19.091Z,95450.72
2019-04-01T13:53:07.688Z,95441.31
2019-04-01T13:55:56.712Z,95443.86
2019-04-01T13:58:45.761Z,95440.91
2019-04-01T14:01:34.939Z,95440.98
2019-04-01T14:04:23.788Z,95442.16
2019-04-01T14:07:12.666Z,95429.36
2019-04-01T14:10:00.954Z,95425.69
2019-04-01T14:12:49.398Z,95421.27
2019-04-01T14:15:37.698Z,95411.91
2019-04-01T14:18:26.071Z,95407.47
2019-04-01T14:21:16.545Z,95409.12
2019-04-01T14:24:04.772Z,95408.72
2019-04-01T14:26:56.484Z,95409.33
2019-04-01T14:29:43.406Z,95404.09
2019-04-01T14:32:32.548Z,95403.47
2019-04-01T14:35:23.865Z,95402.05
2019-04-01T14:38:12.854Z,95405.84
2019-04-01T14:41:01.347Z,95396.19
2019-04-01T14:43:50.260Z,95403.81
2019-04-01T14:46:39.237Z,95401.77
2019-04-01T14:49:27.744Z,95395.11
2019-04-01T14:52:31.179Z,95392.23
2019-04-01T14:55:07.530Z,95390.25
2019-04-01T14:58:00.164Z,95380.36
2019-04-01T15:00:46.532Z,95386.91
2019-04-01T15:03:35.663Z,95381.87
2019-04-01T15:06:24.272Z,95383.52
2019-04-01T15:09:13.714Z,95377.33
2019-04-01T15:12:02.232Z,95381.33
2019-04-01T15:14:50.861Z,95371.11
2019-04-01T15:17:39.952Z,95368.94
2019-04-01T15:20:29.032Z,95367.55
2019-04-01T15:23:18.176Z,95363.15
2019-04-01T15:26:06.552Z,95370.23
2019-04-01T15:28:56.405Z,95366.86
2019-04-01T15:31:45.473Z,95361.80
2019-04-01T15:34:34.888Z,95367.04
2019-04-01T15:37:23.756Z,95360.94
2019-04-01T15:40:13.701Z,95356.22
2019-04-01T15:43:02.588Z,95352.79
2019-04-01T15:45:51.445Z,95358.03
2019-04-01T15:48:40.389Z,95357.63
2019-04-01T15:51:29.293Z,95356.88
2019-04-01T15:54:18.106Z,95352.30
2019-04-01T15:57:06.282Z,95345.80
2019-04-01T15:59:55.095Z,95346.67
2019-04-01T16:02:44.056Z,95354.39
2019-04-01T16:05:34.232Z,95351.44
2019-04-01T16:08:24.291Z,95344.90
2019-04-01T16:11:14.126Z,95346.44
2019-04-01T16:14:02.874Z,95347.70
2019-04-01T16:16:51.599Z,95349.53
2019-04-01T16:19:40.256Z,95354.74
2019-04-01T16:22:29.284Z,95343.01
2019-04-01T16:25:18.291Z,95350.95
2019-04-01T16:28:07.141Z,95349.48
2019-04-01T16:30:56.260Z,95349.81
2019-04-01T16:33:45.782Z,95345.36
2019-04-01T16:36:35.129Z,95354.04
2019-04-01T16:39:24.487Z,95351.48
2019-04-01T16:42:13.217Z,95349.93
2019-04-01T16:45:02.233Z,95344.89
2019-04-01T16:47:51.575Z,95343.62
2019-04-01T16:50:39.866Z,95345.85
2019-04-01T16:53:28.941Z,95342.78
2019-04-01T16:56:17.874Z,95341.48
2019-04-01T16:59:06.649Z,95340.41
2019-04-01T17:01:57.717Z,95338.95
2019-04-01T17:04:48.227Z,95341.52
2019-04-01T17:07:36.827Z,95351.62
2019-04-01T17:10:25.533Z,95349.55
2019-04-01T17:13:16.236Z,95347.55
2019-04-01T17:16:05.143Z,95349.81
2019-04-01T17:18:53.756Z,95354.14
2019-04-01T17:21:42.768Z,95356.45
2019-04-01T17:24:31.905Z,95358.86
2019-04-01T17:27:21.132Z,95351.80
2019-04-01T17:30:12.130Z,95355.78
2019-04-01T17:33:01.579Z,95360.72
2019-04-01T17:35:50.443Z,95363.36
2019-04-01T17:38:39.535Z,95364.08
2019-04-01T17:41:28.774Z,95361.23
2019-04-01T17:44:17.162Z,95361.87
2019-04-01T17:47:06.326Z,95364.23
2019-04-01T17:49:55.638Z,95360.45
2019-04-01T17:52:44.603Z,95358.81
2019-04-01T17:55:36.212Z,95364.58
2019-04-01T17:58:25.135Z,95370.64
2019-04-01T18:01:14.001Z,95363.55
2019-04-01T18:04:02.861Z,95369.44
2019-04-01T18:06:51.602Z,95367.37
2019-04-01T18:09:40.285Z,95367.48
2019-04-01T18:12:28.975Z,95376.53
2019-04-01T18:15:20.619Z,95376.35
2019-04-01T18:18:10.080Z,95371.25
2019-04-01T18:21:00.281Z,95375.95
2019-04-01T18:23:49.536Z,95381.64
2019-04-01T18:26:38.343Z,95382.53
2019-04-01T18:29:27.627Z,95386.22
2019-04-01T18:32:16.898Z,95381.06
2019-04-01T18:35:05.891Z,95389.23
2019-04-01T18:37:54.838Z,95382.66
2019-04-01T18:40:44.081Z,95388.48
2019-04-01T18:43:32.886Z,95391.38
2019-04-01T18:46:23.219Z,95397.35
2019-04-01T18:49:12.459Z,95395.28
2019-04-01T18:52:01.885Z,95394.73
2019-04-01T18:54:51.115Z,95396.56
2019-04-01T18:57:39.219Z,95394.66
2019-04-01T19:00:28.192Z,95399.47
2019-04-01T19:03:17.363Z,95395.71
2019-04-01T19:06:07.347Z,95402.05
2019-04-01T19:09:08.674Z,95405.94
2019-04-01T19:11:46.627Z,95399.12
2019-04-01T19:14:35.357Z,95404.75
2019-04-01T19:17:24.401Z,95407.02
2019-04-01T19:20:14.247Z,95399.86
2019-04-01T19:23:02.875Z,95401.98
2019-04-01T19:25:51.471Z,95404.94
2019-04-01T19:28:40.709Z,95402.97
2019-04-01T19:31:29.588Z,95402.70
2019-04-01T19:34:18.671Z,95406.80
2019-04-01T19:37:07.661Z,95403.63
2019-04-01T19:39:56.801Z,95406.17
2019-04-01T19:42:47.264Z,95403.09
2019-04-01T19:45:36.590Z,95408.44
2019-04-01T19:48:25.960Z,95397.47
2019-04-01T19:51:14.756Z,95401.75
2019-04-01T19:54:04.192Z,95401.95
2019-04-01T19:56:52.803Z,95404.21
2019-04-01T19:59:42.077Z,95402.98
2019-04-01T20:02:34.065Z,95399.21
2019-04-01T20:05:21.164Z,95399.45
2019-04-01T20:08:10.497Z,95401.50
2019-04-01T20:10:59.729Z,95401.22
2019-04-01T20:13:48.288Z,95402.13
2019-04-01T20:16:37.299Z,95402.99
2019-04-01T20:19:26.473Z,95405.44
2019-04-01T20:22:15.004Z,95399.16
2019-04-01T20:25:03.267Z,95401.72
2019-04-01T20:27:52.354Z,95400.16
2019-04-01T20:30:42.700Z,95397.55
2019-04-01T20:33:32.047Z,95397.52
2019-04-01T20:36:28.400Z,95395.88
2019-04-01T20:39:11.637Z,95394.58
2019-04-01T20:41:59.997Z,95394.33
2019-04-01T20:44:48.854Z,95398.34
2019-04-01T20:47:37.604Z,95393.81
2019-04-01T20:50:27.218Z,95396.34
2019-04-01T20:53:19.006Z,95392.61
2019-04-01T20:56:07.543Z,95389.13
2019-04-01T20:58:56.667Z,95393.19
2019-04-01T21:01:45.348Z,95390.97
2019-04-01T21:04:34.154Z,95389.87
2019-04-01T21:07:22.646Z,95394.00
2019-04-01T21:10:11.259Z,95393.38
2019-04-01T21:13:01.019Z,95383.17
2019-04-01T21:15:50.146Z,95380.50
2019-04-01T21:18:39.011Z,95385.42
2019-04-01T21:21:28.230Z,95389.34
2019-04-01T21:24:18.294Z,95385.22
2019-04-01T21:27:07.003Z,95382.08
2019-04-01T21:29:55.619Z,95386.42
2019-04-01T21:32:45.321Z,95382.91
2019-04-01T21:35:34.899Z,95381.71
2019-04-01T21:38:23.728Z,95377.16
2019-04-01T21:41:13.009Z,95375.70
2019-04-01T21:44:02.123Z,95368.77
2019-04-01T21:46:50.756Z,95368.56
2019-04-01T21:49:39.357Z,95363.94
2019-04-01T21:52:27.962Z,95370.27
2019-04-01T21:55:17.331Z,95361.80
2019-04-01T21:58:06.397Z,95361.30
2019-04-01T22:00:56.450Z,95358.81
2019-04-01T22:03:45.301Z,95354.91
2019-04-01T22:06:34.216Z,95357.23
2019-04-01T22:09:23.007Z,95351.30
2019-04-01T22:12:12.057Z,95346.77
2019-04-01T22:15:00.639Z,95346.95
2019-04-01T22:17:49.318Z,95343.17
2019-04-01T22:20:39.362Z,95345.59
2019-04-01T22:23:28.455Z,95345.19
2019-04-01T22:26:17.292Z,95336.47
2019-04-01T22:29:06.295Z,95343.48
2019-04-01T22:31:54.847Z,95335.09
2019-04-01T22:34:43.262Z,95342.11
2019-04-01T22:37:31.807Z,95335.41
2019-04-01T22:40:20.756Z,95339.06
2019-04-01T22:43:09.423Z,95335.83
2019-04-01T22:45:58.324Z,95337.31
2019-04-01T22:48:47.419Z,95332.86
2019-04-01T22:51:36.435Z,95334.27
2019-04-01T22:54:25.683Z,95334.83
2019-04-01T22:57:14.439Z,95330.52
2019-04-01T23:00:03.101Z,95334.45
2019-04-01T23:02:51.309Z,95332.50
2019-04-01T23:05:40.064Z,95326.16
2019-04-01T23:08:28.431Z,95321.94
2019-04-01T23:11:17.303Z,95320.75
2019-04-01T23:14:06.020Z,95318.69
2019-04-01T23:16:54.400Z,95320.59
2019-04-01T23:19:42.747Z,95312.10
2019-04-01T23:22:31.513Z,95314.95
2019-04-01T23:25:20.358Z,95306.38
2019-04-01T23:28:09.008Z,95313.97
2019-04-01T23:30:57.915Z,95313.73
2019-04-01T23:33:46.519Z,95309.48
2019-04-01T23:36:36.155Z,95300.55
2019-04-01T23:39:24.785Z,95297.95
2019-04-01T23:42:13.573Z,95300.61
2019-04-01T23:45:02.085Z,95300.61
2019-04-01T23:47:50.305Z,95306.73
2019-04-01T23:50:39.305Z,95299.47
2019-04-01T23:53:27.531Z,95302.08
2019-04-01T23:56:16.163Z,95298.61
2019-04-01T23:59:05.145Z,95297.95
